Latest Weather Observations for Miles

IDQ60801

Issued at 5:35 pm EST Friday 22 August 2014 (issued every 30 minutes, with the page automatically refreshed every 10 minutes)

About weather observations | Map of weather stations | Latest weather observations for QLD | Other Formats
Station Details ID: 042112 Name: MILES CONSTANCE STREET Lat: -26.66 Lon: 150.18 Height: 304.8 m
Data from the previous 72 hours. | See also: Recent months at Miles
Date/Time
EST
Temp
°C
App
Temp
°C
Dew
Point
Rel
Hum
%
Delta-T
°C
Wind Press
QNH
hPa
Press
MSL
hPa
Rain
since 9 am
mm
Dir
 
Spd
km/h
Gust
km/h
Spd
kts
Gust
kts
22/05:30pm 15.5 13.4 11.1 75 2.4 ESE 13 20 7 11 1023.6 - 1.0
22/05:00pm 16.0 14.4 11.6 75 2.4 ESE 11 17 6 9 1023.4 - 1.0
22/04:30pm 16.4 14.8 11.7 74 2.6 ESE 11 19 6 10 1023.1 - 1.0
22/04:00pm 16.7 15.7 12.4 76 2.4 ESE 9 17 5 9 1022.8 - 1.0
22/03:30pm 16.7 14.7 11.6 72 2.8 ESE 13 24 7 13 1022.9 - 1.0
22/03:00pm 16.0 15.7 13.2 83 1.6 E 7 13 4 7 1023.0 1022.9 0.8
22/02:30pm 16.2 15.2 12.2 77 2.2 E 9 15 5 8 1023.1 - 0.6
22/02:00pm 17.3 15.0 10.4 64 3.7 E 13 20 7 11 1023.3 - 0.0
22/01:30pm 16.9 15.1 12.2 74 2.6 ESE 13 19 7 10 1023.6 - 0.0
22/01:00pm 17.0 14.1 11.1 68 3.2 ENE 17 24 9 13 1024.0 - 0.0
22/12:30pm 17.4 14.7 10.3 63 3.8 E 15 22 8 12 1024.5 - 0.0
22/12:00pm 18.2 15.4 10.0 58 4.4 ENE 15 24 8 13 1024.8 1024.7 0.0
22/11:30am 18.0 15.5 9.8 58 4.4 E 13 20 7 11 1025.3 - 0.0
22/11:00am 17.6 15.1 9.7 60 4.2 ENE 13 24 7 13 1025.6 - 0.0
22/10:30am 16.9 14.3 9.5 61 3.9 E 13 20 7 11 1025.8 - 0.0
22/10:00am 16.5 13.6 9.5 63 3.7 E 15 22 8 12 1025.9 - 0.0
22/09:30am 15.6 13.8 9.5 67 3.2 E 9 15 5 8 1025.9 - 0.0
22/09:00am 14.8 13.2 10.3 74 2.4 SE 9 17 5 9 1025.7 1025.6 1.2
22/08:30am 12.2 11.4 11.1 93 0.6 WSW 6 7 3 4 1025.7 - 1.2
22/08:00am 11.3 11.5 10.7 96 0.3 CALM 0 4 0 2 1025.5 - 1.2
22/07:30am 9.9 9.8 9.3 96 0.3 CALM 0 0 0 0 1025.1 - 1.2
22/07:00am 9.2 8.9 8.8 97 0.2 CALM 0 0 0 0 1024.9 - 1.2
22/06:30am 9.4 9.1 8.6 95 0.4 CALM 0 0 0 0 1024.5 - 1.2
22/06:00am 9.7 9.6 9.3 97 0.2 SSW 0 0 0 0 1024.1 1024.0 1.2
22/05:30am 10.0 9.9 9.4 96 0.3 CALM 0 0 0 0 1023.7 - 1.2
22/05:00am 9.5 9.3 9.1 97 0.2 CALM 0 0 0 0 1023.4 - 1.2
22/04:30am 9.4 9.2 9.0 97 0.2 CALM 0 0 0 0 1023.3 - 1.2
22/04:00am 9.8 9.6 9.2 96 0.3 CALM 0 0 0 0 1023.0 - 1.2
22/03:30am 10.4 9.6 9.8 96 0.3 ESE 4 9 2 5 1023.2 - 1.2
22/03:00am 10.7 10.7 9.9 95 0.4 CALM 0 0 0 0 1023.4 1023.3 1.2
22/02:30am 11.9 11.3 10.4 90 0.8 S 4 11 2 6 1023.3 - 1.2
22/02:00am 12.6 12.5 10.7 88 1.0 ENE 2 7 1 4 1023.5 - 1.2
22/01:30am 13.2 11.7 10.7 85 1.3 E 9 15 5 8 1023.6 - 1.2
22/01:00am 13.3 11.9 10.8 85 1.3 ESE 9 17 5 9 1024.0 - 1.2
22/12:30am 13.3 11.9 11.0 86 1.2 E 9 15 5 8 1024.4 - 1.2
22/12:00am 13.5 12.5 11.1 85 1.3 ESE 7 13 4 7 1024.7 1024.6 1.2
 
Date/Time
EST
Temp
°C
App
Temp
°C
Dew
Point
Rel
Hum
%
Delta-T
°C
Wind Press
QNH
hPa
Press
MSL
hPa
Rain
since 9 am
mm
Dir
 
Spd
km/h
Gust
km/h
Spd
kts
Gust
kts
21/11:30pm 12.5 12.9 11.4 93 0.6 CALM 0 0 0 0 1024.7 - 1.2
21/11:00pm 12.2 12.6 11.4 95 0.4 CALM 0 0 0 0 1024.4 - 1.2
21/10:30pm 12.2 12.6 11.3 94 0.5 CALM 0 0 0 0 1024.1 - 1.2
21/10:00pm 12.9 13.1 11.8 93 0.6 NE 2 7 1 4 1024.0 - 1.2
21/09:30pm 12.8 13.4 11.9 94 0.5 CALM 0 0 0 0 1023.9 - 1.2
21/09:00pm 13.1 13.7 11.8 92 0.7 CALM 0 0 0 0 1023.7 1023.6 1.2
21/08:30pm 13.3 13.6 12.2 93 0.6 NE 2 6 1 3 1023.4 - 1.2
21/08:00pm 13.5 13.8 12.2 92 0.7 NW 2 9 1 5 1023.1 - 1.2
21/07:30pm 13.7 14.3 11.9 89 1.0 CALM 0 0 0 0 1022.8 - 1.2
21/07:00pm 14.0 14.2 12.0 88 1.1 WSW 2 7 1 4 1022.3 - 1.2
21/06:30pm 14.9 14.9 11.2 78 2.0 SW 2 11 1 6 1021.8 - 1.2
21/06:00pm 15.0 14.3 11.5 79 1.9 NE 6 9 3 5 1021.3 1021.1 1.2
21/05:30pm 14.6 14.1 12.0 84 1.4 N 6 13 3 7 1021.4 - 1.2
21/05:00pm 14.4 11.8 12.0 85 1.3 NNE 17 30 9 16 1021.1 - 1.2
21/04:30pm 18.8 17.9 10.5 58 4.5 NW 6 7 3 4 1020.1 - 0.0
21/04:00pm 21.1 17.8 4.8 34 8.1 ENE 11 17 6 9 1019.4 - 0.0
21/03:30pm 22.5 18.8 4.4 30 9.0 SE 13 20 7 11 1019.2 - 0.0
21/03:00pm 22.3 19.2 5.5 33 8.5 SSE 11 19 6 10 1019.5 1019.4 0.0
21/02:30pm 21.2 17.4 5.8 36 7.8 SE 15 20 8 11 1020.0 - 0.0
21/02:00pm 21.9 19.0 6.6 37 7.9 S 11 17 6 9 1020.3 - 0.0
21/01:30pm 20.4 17.2 7.0 41 6.9 SE 13 19 7 10 1020.6 - 0.0
21/01:00pm 21.1 18.8 7.5 41 7.1 ESE 9 17 5 9 1021.1 - 0.0
21/12:30pm 19.9 17.6 7.6 45 6.4 ESE 9 15 5 8 1021.6 - 0.0
21/12:00pm 20.6 17.9 7.3 42 6.9 E 11 19 6 10 1022.0 1021.9 0.0
21/11:30am 20.5 17.9 7.9 44 6.6 ESE 11 17 6 9 1022.5 - 0.0
21/11:00am 19.8 17.3 8.1 46 6.1 ENE 11 20 6 11 1023.0 - 0.0
21/10:30am 18.4 15.9 8.4 52 5.2 ESE 11 17 6 9 1023.3 - 0.0
21/10:00am 18.0 15.7 8.9 55 4.8 ESE 11 17 6 9 1023.5 - 0.0
21/09:30am 17.4 15.5 9.2 58 4.3 SE 9 15 5 8 1023.5 - 0.0
21/09:00am 16.2 14.4 9.3 63 3.6 ESE 9 15 5 8 1023.4 1023.3 0.0
21/08:30am 15.4 13.6 9.5 68 3.1 ESE 9 15 5 8 1023.3 - 0.0
21/08:00am 14.2 14.3 10.2 77 2.1 CALM 0 0 0 0 1023.0 - 0.0
21/07:30am 11.5 11.3 9.1 85 1.2 CALM 0 0 0 0 1022.9 - 0.0
21/07:00am 9.4 9.1 8.6 95 0.4 CALM 0 0 0 0 1022.7 - 0.0
21/06:30am 8.9 8.5 8.3 96 0.3 CALM 0 0 0 0 1022.5 - 0.0
21/06:00am 9.4 9.0 8.4 93 0.5 CALM 0 0 0 0 1022.2 1022.1 0.0
21/05:30am 9.1 8.7 8.3 95 0.4 CALM 0 0 0 0 1021.9 - 0.0
21/05:00am 9.3 8.9 8.3 93 0.5 CALM 0 0 0 0 1021.8 - 0.0
21/04:30am 9.3 8.9 8.3 93 0.5 CALM 0 0 0 0 1021.7 - 0.0
21/04:00am 9.3 8.9 8.3 93 0.5 CALM 0 0 0 0 1021.6 - 0.0
21/03:30am 9.4 9.0 8.2 92 0.6 CALM 0 0 0 0 1021.5 - 0.0
21/03:00am 9.3 8.9 8.1 92 0.6 CALM 0 0 0 0 1021.6 1021.5 0.0
21/02:30am 9.4 8.9 7.7 89 0.8 CALM 0 0 0 0 1021.4 - 0.0
21/02:00am 9.4 8.9 8.0 91 0.7 CALM 0 0 0 0 1021.6 - 0.0
21/01:30am 9.1 8.6 7.9 92 0.6 CALM 0 0 0 0 1021.7 - 0.0
21/01:00am 9.1 8.6 7.9 92 0.6 CALM 0 0 0 0 1021.6 - 0.0
21/12:30am 9.4 8.8 7.5 88 0.9 CALM 0 0 0 0 1021.7 - 0.0
21/12:00am 9.7 9.2 7.9 88 0.9 CALM 0 0 0 0 1021.7 1021.6 0.0
 
Date/Time
EST
Temp
°C
App
Temp
°C
Dew
Point
Rel
Hum
%
Delta-T
°C
Wind Press
QNH
hPa
Press
MSL
hPa
Rain
since 9 am
mm
Dir
 
Spd
km/h
Gust
km/h
Spd
kts
Gust
kts
20/11:30pm 10.4 9.3 8.4 87 1.0 NE 4 7 2 4 1021.7 - 0.0
20/11:00pm 9.4 8.9 8.0 91 0.7 CALM 0 0 0 0 1021.6 - 0.0
20/10:30pm 9.7 9.3 8.3 91 0.7 CALM 0 0 0 0 1021.6 - 0.0
20/10:00pm 10.1 9.7 8.1 87 1.0 CALM 0 0 0 0 1021.5 - 0.0
20/09:30pm 10.9 10.6 8.7 86 1.1 CALM 0 0 0 0 1021.3 - 0.0
20/09:00pm 11.1 10.9 8.9 86 1.1 CALM 0 0 0 0 1021.4 1021.2 0.0
20/08:30pm 11.7 11.4 8.5 81 1.6 CALM 0 0 0 0 1021.2 - 0.0
20/08:00pm 11.9 11.7 8.9 82 1.5 CALM 0 0 0 0 1021.0 - 0.0
20/07:30pm 12.9 12.8 9.4 79 1.8 CALM 0 0 0 0 1020.6 - 0.0
20/07:00pm 13.9 13.8 9.5 75 2.3 CALM 0 0 0 0 1020.4 - 0.0
20/06:30pm 14.9 14.9 9.8 71 2.7 CALM 0 0 0 0 1020.1 - 0.0
20/06:00pm 16.3 16.1 9.0 62 3.8 CALM 0 0 0 0 1019.8 1019.7 0.0
20/05:30pm 18.9 16.9 6.1 43 6.4 SE 6 9 3 5 1019.4 - 0.0
20/05:00pm 19.5 17.8 5.7 40 6.9 S 4 7 2 4 1019.0 - 0.0
20/04:30pm 20.4 18.0 5.1 36 7.6 S 7 11 4 6 1018.6 - 0.0
20/04:00pm 20.6 18.1 4.8 35 7.8 SE 7 13 4 7 1018.5 - 0.0
20/03:30pm 20.7 18.1 4.4 34 8.0 SE 7 15 4 8 1018.2 - 0.0
20/03:00pm 20.4 17.5 4.5 35 7.8 SE 9 15 5 8 1018.4 1018.2 0.0
20/02:30pm 20.5 17.1 3.8 33 8.1 S 11 15 6 8 1018.7 - 0.0
20/02:00pm 20.2 17.8 5.1 37 7.5 ESE 7 17 4 9 1018.9 - 0.0
20/01:30pm 19.9 17.5 5.2 38 7.3 ENE 7 13 4 7 1019.2 - 0.0
20/01:00pm 20.1 17.9 5.5 38 7.3 SSW 6 13 3 7 1019.4 - 0.0
20/12:30pm 18.9 16.4 6.7 45 6.2 SE 9 15 5 8 1020.1 - 0.0
20/12:00pm 18.4 15.6 7.0 47 5.8 ESE 11 15 6 8 1020.5 1020.4 0.0
20/11:30am 18.0 16.4 7.9 51 5.2 ESE 6 13 3 7 1021.0 - 0.0
20/11:00am 16.9 15.1 7.9 55 4.6 SE 7 11 4 6 1021.4 - 0.0
20/10:30am 16.1 13.7 8.5 60 3.9 SSE 11 17 6 9 1021.7 - 0.0
20/10:00am 14.3 12.9 8.8 69 2.8 SSE 6 9 3 5 1021.8 - 0.0
20/09:30am 13.1 11.6 9.2 77 2.0 SSE 7 13 4 7 1021.9 - 0.0
20/09:00am 11.8 11.0 9.5 86 1.2 SE 4 7 2 4 1022.0 1021.9 0.0
20/08:30am 10.4 8.4 8.8 90 0.8 SE 9 13 5 7 1022.0 - 0.0
20/08:00am 10.0 8.4 8.8 92 0.6 S 7 11 4 6 1021.6 - 0.0
20/07:30am 8.0 7.3 6.9 93 0.5 CALM 0 0 0 0 1021.4 - 0.0
20/07:00am 5.3 4.1 4.8 97 0.2 CALM 0 0 0 0 1021.1 - 0.0
20/06:30am 4.9 3.7 4.4 97 0.2 CALM 0 0 0 0 1020.7 - 0.0
20/06:00am 4.9 3.6 4.2 95 0.3 CALM 0 0 0 0 1020.5 1020.4 0.0
20/05:30am 4.5 3.2 4.3 99 0.1 CALM 0 0 0 0 1020.5 - 0.0
20/05:00am 4.8 3.5 4.3 97 0.2 CALM 0 0 0 0 1020.1 - 0.0
20/04:30am 4.9 3.7 4.4 97 0.2 CALM 0 0 0 0 1019.9 - 0.0
20/04:00am 5.4 4.3 4.9 97 0.2 CALM 0 0 0 0 1019.7 - 0.0
20/03:30am 5.6 4.5 4.9 95 0.3 CALM 0 0 0 0 1019.7 - 0.0
20/03:00am 5.7 4.7 5.5 99 0.1 CALM 0 0 0 0 1019.6 1019.5 0.0
20/02:30am 6.3 5.3 5.6 95 0.3 CALM 0 0 0 0 1019.8 - 0.0
20/02:00am 6.6 5.7 5.9 95 0.3 CALM 0 0 0 0 1019.6 - 0.0
20/01:30am 6.9 6.0 6.0 94 0.4 CALM 0 0 0 0 1019.7 - 0.0
20/01:00am 7.7 6.9 6.4 91 0.6 CALM 0 0 0 0 1019.8 - 0.0
20/12:30am 8.7 7.3 7.2 90 0.7 SSW 4 7 2 4 1019.6 - 0.0
20/12:00am 9.3 7.1 6.3 81 1.4 SSW 7 11 4 6 1019.5 1019.4 0.0
 
Date/Time
EST
Temp
°C
App
Temp
°C
Dew
Point
Rel
Hum
%
Delta-T
°C
Wind Press
QNH
hPa
Press
MSL
hPa
Rain
since 9 am
mm
Dir
 
Spd
km/h
Gust
km/h
Spd
kts
Gust
kts
19/11:30pm 9.0 7.1 6.7 85 1.1 SSW 6 7 3 4 1019.5 - 0.0
19/11:00pm 9.1 8.5 7.2 88 0.9 CALM 0 0 0 0 1019.7 - 0.0
19/10:30pm 10.2 9.6 7.5 83 1.3 CALM 0 6 0 3 1019.7 - 0.0
19/10:00pm 10.6 8.9 7.5 81 1.5 SSW 6 7 3 4 1019.6 - 0.0
19/09:30pm 11.3 9.5 7.0 75 2.1 SW 6 9 3 5 1019.5 - 0.0
19/09:00pm 12.2 10.3 6.6 68 2.7 SW 6 7 3 4 1019.3 1019.2 0.0
19/08:30pm 13.0 10.8 6.4 64 3.2 SW 7 11 4 6 1019.1 - 0.0
19/08:00pm 13.3 11.4 6.5 63 3.3 SW 6 11 3 6 1018.9 - 0.0
19/07:30pm 13.8 11.6 6.4 61 3.6 SW 7 11 4 6 1018.6 - 0.0
19/07:00pm 14.5 12.3 6.1 57 4.1 SSW 7 11 4 6 1018.2 - 0.0
19/06:30pm 15.3 12.7 6.1 54 4.5 SSW 9 13 5 7 1017.9 - 0.0
19/06:00pm 16.2 13.1 5.5 49 5.2 SSW 11 17 6 9 1017.4 1017.2 0.0

Other Formats:

Comma delimited format used in spreadsheet applications
http://www.bom.gov.au/fwo/IDQ60801/IDQ60801.95529.axf

JavaScript Object Notation format (JSON) in row-major order
http://www.bom.gov.au/fwo/IDQ60801/IDQ60801.95529.json